DTKA/TBJ METAR and TAF weather

Enter ICAO airport designator
Station Type Date Time Source
DTKA METAR 2019/06/18 13:00 UTC NOAA

DTKA 181300Z 34008KT 310V030 CAVOK 26/15 Q1016 NOSIG


Station Type Date Time Source
DTKA Decoded METAR 2019/06/18 13:00 UTC NOAA

Tabarka, Tunisia (DTKA) 36-57N 008-45E 21M
Jun 18, 2019 - 09:00 AM EDT / 2019.06.18 1300 UTC
Wind: from the NNW (340 degrees) at 9 MPH (8 KT) (direction variable):0
Visibility: greater than 7 mile(s):0
Temperature: 78 F (26 C)
Dew Point: 59 F (15 C)
Relative Humidity: 50%
Pressure (altimeter): 30.00 in. Hg (1016 hPa)
ob: DTKA 181300Z 34008KT 310V030 CAVOK 26/15 Q1016 NOSIG
cycle: 13

Station Type Date Time Source
DTKA TAF 2018/07/22 13:33 UTC NOAA

TAF TAF DTKA 221200Z 2213/2322 23005KT 9999 FEW020 PROB30
TEMPO 2217/2222 4000 -TSRA FEW026CB

Example: see airport list